Industry, Maine
Current Conditions -  °F | °C
As of 1:55 PM on Tuesday 27 Jan 2015 (Local Time) from KWVL Reporting Station
Overcast Overcast  
Wind Chill: -12°   Ceiling: 400
Heat Index: 10°   Visibility: 0mi
Dew Point: 10°   Wind: 30mph
Humidity: 100%   Direction: 10°N
Pressure: 29.54"   Gusts: 39mph
Location:  44.6583°N, 70.1012°W
Report Text: KWVL 271855Z 01026G34KT M1/4SM OVC004 M12/M12 A2954 RMK AO1
Loading
Personal Weather Stations






























Interactive Weather Map New forecast layout! Learn more

10-Day Weather Forecast

Advertisements
Track Severe Weather on mobile